Time;durP1;ratioP1;P1;durP2;ratioP2;P2;SDS_P1;SDS_P2;PMS_P1;PMS_P2;Temp;Humidity;BMP_temperature;BMP_pressure;BME280_temperature;BME280_humidity;BME280_pressure;Samples;Min_cycle;Max_cycle;Signal;HPM_P1;HPM_P2
2023/05/18 00:00:43;;;;;;;;;;;;;;;6.68;76.26;102833.81;5015106;28;19935;-56
2023/05/18 00:03:09;;;;;;;;;;;;;;;6.67;77.46;102824.34;5015257;28;20706;-55
2023/05/18 00:05:34;;;;;;;;;;;;;;;6.66;74.59;102827.69;5016080;28;19917;-55
2023/05/18 00:08:00;;;;;;;;;;;;;;;6.64;75.05;102826.69;5018168;28;20008;-56
2023/05/18 00:10:25;;;;;;;;;;;;;;;6.59;78.08;102836.56;5019050;28;20017;-55
2023/05/18 00:12:50;;;;;;;;;;;;;;;6.54;78.33;102829.31;5019170;28;20031;-56
2023/05/18 00:15:15;;;;;;;;;;;;;;;6.50;78.27;102841.00;5018951;28;19975;-56
2023/05/18 00:17:41;;;;;;;;;;;;;;;6.45;78.50;102834.63;5021700;28;20392;-55
2023/05/18 00:20:07;;;;;;;;;;;;;;;6.42;79.61;102842.06;5019072;28;20008;-55
2023/05/18 00:22:32;;;;;;;;;;;;;;;6.39;79.43;102834.16;5020369;28;19925;-55
2023/05/18 00:24:57;;;;;;;;;;;;;;;6.34;79.75;102833.81;5022036;28;19921;-54
2023/05/18 00:27:23;;;;;;;;;;;;;;;6.29;77.28;102835.13;5016762;28;20350;-55
2023/05/18 00:29:48;;;;;;;;;;;;;;;6.28;79.70;102837.56;5017395;28;19933;-55
2023/05/18 00:32:13;;;;;;;;;;;;;;;6.23;79.27;102839.75;5020667;28;19929;-54
2023/05/18 00:34:38;;;;;;;;;;;;;;;6.18;78.45;102838.50;5018083;28;20020;-57
2023/05/18 00:37:04;;;;;;;;;;;;;;;6.15;79.49;102843.41;5018701;28;19945;-54
2023/05/18 00:39:29;;;;;;;;;;;;;;;6.10;80.68;102832.81;5007449;28;19921;-53
2023/05/18 00:41:54;;;;;;;;;;;;;;;6.07;79.64;102839.38;5021114;28;19921;-56
2023/05/18 00:44:19;;;;;;;;;;;;;;;6.06;80.08;102840.13;5019072;28;20008;-56
2023/05/18 00:46:45;;;;;;;;;;;;;;;6.05;78.00;102846.88;5018787;28;19968;-56
2023/05/18 00:49:10;;;;;;;;;;;;;;;6.08;78.86;102844.59;5024957;28;19960;-55
2023/05/18 00:51:36;;;;;;;;;;;;;;;6.04;79.88;102849.34;5027205;28;19967;-54
2023/05/18 00:54:02;;;;;;;;;;;;;;;6.00;80.28;102844.75;5023840;28;20044;-55
2023/05/18 00:56:27;;;;;;;;;;;;;;;5.96;81.44;102840.19;5026819;28;19921;-55
2023/05/18 00:58:56;;;;;;;;;;;;;;;5.94;81.04;102841.72;5025819;28;20039;-55
2023/05/18 01:01:27;;;;;;;;;;;;;;;5.93;81.14;102842.50;5024257;28;19921;-56
2023/05/18 01:03:55;;;;;;;;;;;;;;;5.91;79.16;102844.94;5019645;28;19956;-55
2023/05/18 01:06:21;;;;;;;;;;;;;;;5.86;80.67;102841.97;5023552;28;20007;-55
2023/05/18 01:08:47;;;;;;;;;;;;;;;5.84;81.56;102845.19;5021445;28;20000;-55
2023/05/18 01:11:24;;;;;;;;;;;;;;;5.79;80.58;102843.94;5019438;28;19920;-55
2023/05/18 01:13:49;;;;;;;;;;;;;;;5.78;81.33;102853.25;5019635;28;20303;-53
2023/05/18 01:16:17;;;;;;;;;;;;;;;5.76;80.66;102847.13;5017189;28;19917;-53
2023/05/18 01:18:57;;;;;;;;;;;;;;;5.73;80.84;102844.34;5021427;28;19917;-54
2023/05/18 01:21:32;;;;;;;;;;;;;;;5.71;81.64;102842.44;5019310;28;19961;-55
2023/05/18 01:24:20;;;;;;;;;;;;;;;5.70;81.98;102853.41;5021518;28;20298;-54
2023/05/18 01:26:49;;;;;;;;;;;;;;;5.69;82.21;102851.63;5022766;28;19917;-55
2023/05/18 01:29:16;;;;;;;;;;;;;;;5.66;80.94;102852.28;5020283;28;19940;-54
2023/05/18 01:31:42;;;;;;;;;;;;;;;5.63;80.99;102847.81;5024120;28;20394;-54
2023/05/18 01:34:07;;;;;;;;;;;;;;;5.63;80.13;102852.91;5024766;28;19921;-55
2023/05/18 01:36:32;;;;;;;;;;;;;;;5.60;80.34;102844.13;5023002;28;20008;-55
2023/05/18 01:39:00;;;;;;;;;;;;;;;5.59;81.43;102856.00;5027387;28;19928;-55
2023/05/18 01:41:27;;;;;;;;;;;;;;;5.59;82.16;102852.56;5023186;28;19929;-55
2023/05/18 01:44:25;;;;;;;;;;;;;;;5.58;82.18;102853.31;5024237;28;19963;-55
2023/05/18 01:46:53;;;;;;;;;;;;;;;5.56;80.71;102853.19;5020033;28;20323;-55
2023/05/18 01:49:18;;;;;;;;;;;;;;;5.56;80.91;102847.22;5016557;28;19922;-54
2023/05/18 01:51:45;;;;;;;;;;;;;;;5.55;82.61;102848.88;5021604;28;19928;-56
2023/05/18 01:54:11;;;;;;;;;;;;;;;5.56;80.83;102849.75;5020894;28;19972;-54
2023/05/18 01:56:37;;;;;;;;;;;;;;;5.53;83.30;102846.97;5022247;28;20618;-55
2023/05/18 01:59:03;;;;;;;;;;;;;;;5.51;82.04;102856.16;5022349;28;19927;-54
2023/05/18 02:01:28;;;;;;;;;;;;;;;5.51;84.60;102848.50;5020961;28;19996;-55
2023/05/18 02:03:53;;;;;;;;;;;;;;;5.48;83.90;102850.81;5021545;28;19921;-56
2023/05/18 02:06:19;;;;;;;;;;;;;;;5.47;83.69;102849.03;5016434;28;19921;-54
2023/05/18 02:08:44;;;;;;;;;;;;;;;5.45;84.52;102848.88;5014254;28;19935;-54
2023/05/18 02:11:09;;;;;;;;;;;;;;;5.45;84.47;102848.00;5018559;28;19929;-54
2023/05/18 02:13:35;;;;;;;;;;;;;;;5.41;84.50;102849.44;5020229;28;19929;-55
2023/05/18 02:16:02;;;;;;;;;;;;;;;5.39;83.91;102839.09;5022136;28;19925;-55
2023/05/18 02:18:28;;;;;;;;;;;;;;;5.37;84.89;102842.28;5019871;28;19917;-55
2023/05/18 02:20:59;;;;;;;;;;;;;;;5.34;82.35;102845.50;5021604;28;19963;-55
2023/05/18 02:23:25;;;;;;;;;;;;;;;5.34;84.47;102842.06;5014737;28;19921;-55
2023/05/18 02:25:50;;;;;;;;;;;;;;;5.32;85.18;102830.81;5021290;28;19918;-58
2023/05/18 02:28:15;;;;;;;;;;;;;;;5.30;85.35;102838.34;5022145;28;19925;-55
2023/05/18 02:30:41;;;;;;;;;;;;;;;5.28;84.07;102834.81;5021208;28;20433;-55
2023/05/18 02:33:07;;;;;;;;;;;;;;;5.27;85.11;102832.09;5018638;28;20388;-55
2023/05/18 02:35:33;;;;;;;;;;;;;;;5.27;86.45;102827.91;5017753;28;20023;-55
2023/05/18 02:37:59;;;;;;;;;;;;;;;5.26;84.52;102823.56;5019081;28;20027;-55
2023/05/18 02:40:24;;;;;;;;;;;;;;;5.26;84.66;102826.13;5025199;28;19921;-55
2023/05/18 02:42:50;;;;;;;;;;;;;;;5.25;85.41;102829.44;5023715;28;19936;-56
2023/05/18 02:45:15;;;;;;;;;;;;;;;5.24;84.75;102827.66;5024811;28;19925;-54
2023/05/18 02:47:42;;;;;;;;;;;;;;;5.26;84.24;102826.13;5025093;28;19931;-55
2023/05/18 02:50:08;;;;;;;;;;;;;;;5.27;82.56;102824.44;5023910;28;19929;-54
2023/05/18 02:52:33;;;;;;;;;;;;;;;5.27;83.19;102822.78;5019918;28;20314;-55
2023/05/18 02:54:58;;;;;;;;;;;;;;;5.26;83.58;102823.56;5021975;28;19932;-56
2023/05/18 02:57:23;;;;;;;;;;;;;;;5.25;83.15;102826.88;5017505;28;19929;-55
2023/05/18 02:59:49;;;;;;;;;;;;;;;5.24;85.57;102827.66;5018361;28;19921;-55
2023/05/18 03:02:15;;;;;;;;;;;;;;;5.23;85.26;102825.88;5017916;28;20378;-54
2023/05/18 03:04:40;;;;;;;;;;;;;;;5.22;85.50;102831.75;5017863;28;20482;-54
2023/05/18 03:07:06;;;;;;;;;;;;;;;5.21;85.86;102827.41;5019483;28;20406;-54
2023/05/18 03:09:32;;;;;;;;;;;;;;;5.18;84.28;102834.81;5020897;28;19933;-56
2023/05/18 03:11:57;;;;;;;;;;;;;;;5.17;83.52;102830.50;5020955;28;20040;-53
2023/05/18 03:14:22;;;;;;;;;;;;;;;5.15;84.95;102829.44;5020081;28;19935;-55
2023/05/18 03:16:52;;;;;;;;;;;;;;;5.15;84.33;102837.09;5021603;28;19967;-55
2023/05/18 03:19:17;;;;;;;;;;;;;;;5.12;85.50;102841.97;5023561;28;19928;-54
2023/05/18 03:21:43;;;;;;;;;;;;;;;5.11;86.18;102838.53;5021706;28;19928;-54
2023/05/18 03:24:08;;;;;;;;;;;;;;;5.08;84.24;102830.63;5022899;28;20020;-55
2023/05/18 03:26:33;;;;;;;;;;;;;;;5.06;84.84;102833.81;5014742;28;19926;-55
2023/05/18 03:29:00;;;;;;;;;;;;;;;5.04;84.27;102833.72;5018949;28;19962;-57
2023/05/18 03:31:25;;;;;;;;;;;;;;;5.03;84.95;102831.88;5019925;28;20289;-55
2023/05/18 03:33:50;;;;;;;;;;;;;;;5.03;85.44;102839.53;5021225;28;19935;-53
2023/05/18 03:36:15;;;;;;;;;;;;;;;5.02;85.97;102831.78;5016096;28;19933;-54
2023/05/18 03:38:44;;;;;;;;;;;;;;;5.01;85.88;102838.53;5017903;28;19921;-51
2023/05/18 03:41:10;;;;;;;;;;;;;;;4.99;85.31;102841.75;5019759;28;20012;-54
2023/05/18 03:43:35;;;;;;;;;;;;;;;4.94;85.92;102831.16;5020907;28;20019;-54
2023/05/18 03:46:00;;;;;;;;;;;;;;;4.90;87.69;102831.66;5021128;28;20371;-56
2023/05/18 03:48:26;;;;;;;;;;;;;;;4.88;86.53;102825.56;5021216;28;19921;-56
2023/05/18 03:50:51;;;;;;;;;;;;;;;4.87;87.82;102833.97;5018769;28;20533;-56
2023/05/18 03:53:20;;;;;;;;;;;;;;;4.90;87.33;102833.31;5015133;28;19924;-55
2023/05/18 03:55:46;;;;;;;;;;;;;;;4.87;87.70;102836.53;5019861;28;19971;-53
2023/05/18 03:58:11;;;;;;;;;;;;;;;4.87;86.50;102838.19;5021307;28;19971;-54
2023/05/18 04:00:36;;;;;;;;;;;;;;;4.88;86.71;102839.97;5017517;28;20344;-55
2023/05/18 04:03:02;;;;;;;;;;;;;;;4.91;86.84;102847.84;5011922;28;19979;-56
2023/05/18 04:05:27;;;;;;;;;;;;;;;4.93;87.23;102848.88;5023342;28;19921;-55
2023/05/18 04:07:52;;;;;;;;;;;;;;;4.93;87.69;102849.78;5019206;28;19925;-55
2023/05/18 04:10:20;;;;;;;;;;;;;;;4.93;86.47;102846.34;5020009;28;19929;-55
2023/05/18 04:12:45;;;;;;;;;;;;;;;4.94;87.44;102858.31;5020891;28;19924;-55
2023/05/18 04:15:13;;;;;;;;;;;;;;;4.96;86.66;102850.00;5020766;28;19922;-45
2023/05/18 04:17:42;;;;;;;;;;;;;;;4.99;86.83;102849.38;5021472;28;19974;-44
2023/05/18 04:20:13;;;;;;;;;;;;;;;5.04;86.80;102863.41;5021939;28;20394;-45
2023/05/18 04:22:42;;;;;;;;;;;;;;;5.07;87.55;102862.00;5019827;28;19917;-45
2023/05/18 04:25:09;;;;;;;;;;;;;;;5.09;87.55;102857.88;5024197;28;19936;-44
2023/05/18 04:27:35;;;;;;;;;;;;;;;5.13;87.58;102864.16;5025318;28;19931;-44
2023/05/18 04:30:00;;;;;;;;;;;;;;;5.15;86.72;102854.06;5026555;28;19933;-45
2023/05/18 04:32:29;;;;;;;;;;;;;;;5.20;86.36;102866.44;5023497;28;20414;-44
2023/05/18 04:34:57;;;;;;;;;;;;;;;5.27;87.94;102863.59;5024160;28;19921;-44
2023/05/18 04:37:22;;;;;;;;;;;;;;;5.43;85.97;102862.31;5021761;28;19927;-44
2023/05/18 04:39:47;;;;;;;;;;;;;;;5.58;85.48;102856.78;5026634;28;19921;-46
2023/05/18 04:42:13;;;;;;;;;;;;;;;5.64;84.97;102858.91;5021950;28;19921;-45
2023/05/18 04:44:38;;;;;;;;;;;;;;;5.63;85.05;102863.13;5019519;28;19921;-48
2023/05/18 04:47:07;;;;;;;;;;;;;;;5.63;84.40;102860.56;5021677;28;19947;-45
2023/05/18 04:49:32;;;;;;;;;;;;;;;5.64;84.94;102858.91;5023034;28;20341;-44
2023/05/18 04:51:58;;;;;;;;;;;;;;;5.67;85.23;102868.50;5021022;28;20440;-44
2023/05/18 04:54:29;;;;;;;;;;;;;;;5.69;86.67;102877.16;5021096;28;19921;-44
2023/05/18 04:56:54;;;;;;;;;;;;;;;5.72;85.82;102873.19;5020594;28;20003;-47
2023/05/18 04:59:24;;;;;;;;;;;;;;;5.78;84.85;102872.78;5027348;28;20020;-44
2023/05/18 05:01:50;;;;;;;;;;;;;;;5.82;83.56;102879.91;5025997;28;19986;-44
2023/05/18 05:04:15;;;;;;;;;;;;;;;5.89;85.41;102877.97;5022089;28;20012;-45
2023/05/18 05:06:40;;;;;;;;;;;;;;;6.02;84.43;102874.75;5021447;28;19925;-45
2023/05/18 05:09:06;;;;;;;;;;;;;;;6.13;84.83;102873.94;5023521;28;20006;-46
2023/05/18 05:11:31;;;;;;;;;;;;;;;6.24;83.69;102873.84;5022054;28;19925;-44
2023/05/18 05:13:56;;;;;;;;;;;;;;;6.41;83.11;102876.94;5021902;28;19925;-44
2023/05/18 05:16:21;;;;;;;;;;;;;;;6.64;83.29;102880.38;5022016;28;19921;-43
2023/05/18 05:18:47;;;;;;;;;;;;;;;6.90;82.09;102877.22;5023260;28;19936;-44
2023/05/18 05:21:12;;;;;;;;;;;;;;;7.10;81.92;102866.81;5024286;28;19925;-44
2023/05/18 05:23:37;;;;;;;;;;;;;;;7.19;80.87;102877.72;5025498;28;19928;-46
2023/05/18 05:26:02;;;;;;;;;;;;;;;7.31;80.94;102875.16;5022408;28;20478;-44
2023/05/18 05:28:28;;;;;;;;;;;;;;;7.41;80.41;102879.31;5023882;28;19922;-46
2023/05/18 05:30:53;;;;;;;;;;;;;;;7.41;80.18;102887.00;5021535;28;20474;-46
2023/05/18 05:33:18;;;;;;;;;;;;;;;7.37;80.38;102872.19;5022288;28;19932;-47
2023/05/18 05:35:43;;;;;;;;;;;;;;;7.35;79.93;102886.53;5021913;28;20022;-44
2023/05/18 05:38:09;;;;;;;;;;;;;;;7.35;80.01;102874.63;5023051;28;20026;-46
2023/05/18 05:40:34;;;;;;;;;;;;;;;7.31;80.15;102871.72;5023776;28;19928;-45
2023/05/18 05:42:59;;;;;;;;;;;;;;;7.31;79.97;102874.28;5023783;28;19940;-44
2023/05/18 05:45:27;;;;;;;;;;;;;;;7.33;80.01;102873.59;5022062;28;19925;-45
2023/05/18 05:47:52;;;;;;;;;;;;;;;7.38;79.89;102873.94;5023195;28;20398;-44
2023/05/18 05:50:17;;;;;;;;;;;;;;;7.41;79.79;102874.19;5020482;28;19933;-47
2023/05/18 05:52:42;;;;;;;;;;;;;;;7.58;79.56;102873.72;5023829;28;19968;-45
2023/05/18 05:55:08;;;;;;;;;;;;;;;7.94;79.58;102880.56;5025353;28;19921;-47
2023/05/18 05:57:33;;;;;;;;;;;;;;;8.41;78.38;102880.47;5019242;28;19921;-43
2023/05/18 05:59:58;;;;;;;;;;;;;;;8.73;77.30;102876.66;5024601;28;20381;-46
2023/05/18 06:02:23;;;;;;;;;;;;;;;9.07;76.71;102877.25;5022632;28;20347;-44
2023/05/18 06:04:49;;;;;;;;;;;;;;;9.58;78.10;102871.13;5023419;28;20363;-43
2023/05/18 06:07:14;;;;;;;;;;;;;;;9.98;77.03;102869.41;5021923;28;19920;-44
2023/05/18 06:09:39;;;;;;;;;;;;;;;10.31;75.91;102875.78;5019748;28;19925;-46
2023/05/18 06:12:05;;;;;;;;;;;;;;;10.61;75.84;102876.72;5021328;28;20331;-43
2023/05/18 06:14:30;;;;;;;;;;;;;;;10.83;74.00;102867.72;5020836;28;19932;-45
2023/05/18 06:16:55;;;;;;;;;;;;;;;11.03;73.49;102867.19;5025722;28;20331;-44
2023/05/18 06:19:20;;;;;;;;;;;;;;;11.04;68.50;102874.13;5017975;28;19929;-44
2023/05/18 06:21:46;;;;;;;;;;;;;;;10.97;71.31;102874.56;5022480;28;20264;-45
2023/05/18 06:24:11;;;;;;;;;;;;;;;10.77;68.42;102885.38;5018272;28;19925;-44
2023/05/18 06:26:36;;;;;;;;;;;;;;;10.66;70.56;102874.44;5022268;28;19940;-45
2023/05/18 06:29:01;;;;;;;;;;;;;;;10.64;69.33;102874.38;5019854;28;20020;-44
2023/05/18 06:31:27;;;;;;;;;;;;;;;10.68;71.15;102876.34;5019438;28;20461;-47
2023/05/18 06:33:52;;;;;;;;;;;;;;;10.64;70.48;102873.47;5020388;28;19991;-47
2023/05/18 06:36:17;;;;;;;;;;;;;;;10.45;69.06;102886.91;5020473;28;19923;-45
2023/05/18 06:38:42;;;;;;;;;;;;;;;10.41;69.88;102883.25;5021672;28;19937;-47
2023/05/18 06:41:08;;;;;;;;;;;;;;;10.39;69.48;102890.00;5022066;28;19929;-43
2023/05/18 06:43:33;;;;;;;;;;;;;;;10.43;69.57;102886.84;5020700;28;20449;-44
2023/05/18 06:45:58;;;;;;;;;;;;;;;10.51;70.00;102889.88;5022801;28;19921;-45
2023/05/18 06:48:26;;;;;;;;;;;;;;;10.81;67.97;102884.78;5021283;28;20023;-45
2023/05/18 06:50:52;;;;;;;;;;;;;;;10.87;68.56;102882.56;5017442;28;20003;-57
2023/05/18 06:53:17;;;;;;;;;;;;;;;11.01;67.89;102871.38;5021861;28;20646;-56
2023/05/18 06:55:42;;;;;;;;;;;;;;;11.17;67.13;102881.78;5020422;28;19965;-57
2023/05/18 06:58:07;;;;;;;;;;;;;;;11.36;66.21;102883.72;5023744;28;20030;-57
2023/05/18 07:00:33;;;;;;;;;;;;;;;11.61;65.89;102893.72;5020471;28;19967;-57
2023/05/18 07:02:58;;;;;;;;;;;;;;;11.76;64.59;102889.41;5024277;28;20435;-57
2023/05/18 07:05:23;;;;;;;;;;;;;;;11.90;64.46;102891.91;5024149;28;19928;-56
2023/05/18 07:07:49;;;;;;;;;;;;;;;11.92;64.64;102892.88;5023369;28;19929;-56
2023/05/18 07:10:14;;;;;;;;;;;;;;;12.14;61.70;102895.81;5022826;28;19995;-55
2023/05/18 07:12:39;;;;;;;;;;;;;;;11.93;61.72;102895.53;5020293;28;20346;-57
2023/05/18 07:15:05;;;;;;;;;;;;;;;11.78;62.20;102899.81;5018130;28;20377;-58
2023/05/18 07:17:30;;;;;;;;;;;;;;;11.83;62.38;102898.41;5018774;28;19956;-57
2023/05/18 07:19:56;;;;;;;;;;;;;;;11.96;61.34;102889.66;5018804;28;19921;-56
2023/05/18 07:22:21;;;;;;;;;;;;;;;12.01;59.62;102908.81;5020747;28;19964;-56
2023/05/18 07:24:46;;;;;;;;;;;;;;;12.04;60.92;102906.44;5017686;28;20430;-58
2023/05/18 07:27:11;;;;;;;;;;;;;;;12.25;60.50;102898.94;5020647;28;19917;-57
2023/05/18 07:29:37;;;;;;;;;;;;;;;12.46;58.99;102907.84;5016456;28;19934;-57
2023/05/18 07:32:02;;;;;;;;;;;;;;;12.52;58.42;102904.69;5021741;28;19929;-58
2023/05/18 07:34:27;;;;;;;;;;;;;;;12.66;58.71;102901.13;5016473;28;19926;-57
2023/05/18 07:36:52;;;;;;;;;;;;;;;12.66;59.14;102900.25;5018225;28;19984;-57
2023/05/18 07:39:18;;;;;;;;;;;;;;;12.61;58.63;102915.50;5020944;28;19921;-57
2023/05/18 07:41:47;;;;;;;;;;;;;;;12.72;57.92;102914.38;5016686;28;20307;-56
2023/05/18 07:44:13;;;;;;;;;;;;;;;12.81;57.18;102916.56;5023115;28;20004;-56
2023/05/18 07:46:38;;;;;;;;;;;;;;;12.86;57.39;102915.97;5019519;28;20036;-56
2023/05/18 07:49:03;;;;;;;;;;;;;;;12.90;56.77;102924.75;5018904;28;19925;-56
2023/05/18 07:51:28;;;;;;;;;;;;;;;12.84;56.30;102921.84;5020097;28;20016;-56
2023/05/18 07:53:54;;;;;;;;;;;;;;;12.84;57.16;102922.75;5020390;28;19976;-57
2023/05/18 07:56:19;;;;;;;;;;;;;;;12.89;57.45;102929.03;5017332;28;20379;-57
2023/05/18 07:58:44;;;;;;;;;;;;;;;12.85;57.45;102923.63;5017184;28;20512;-57
2023/05/18 08:01:10;;;;;;;;;;;;;;;13.00;57.05;102923.53;5021345;28;20024;-57
2023/05/18 08:03:35;;;;;;;;;;;;;;;13.07;56.39;102930.78;5020425;28;19921;-57
2023/05/18 08:06:00;;;;;;;;;;;;;;;13.20;56.11;102932.28;5011258;28;20992;-56
2023/05/18 08:08:26;;;;;;;;;;;;;;;13.24;54.66;102929.97;5016427;28;19929;-57
2023/05/18 08:10:52;;;;;;;;;;;;;;;13.19;53.89;102930.53;5019554;28;20043;-56
2023/05/18 08:13:17;;;;;;;;;;;;;;;12.93;55.46;102931.78;5022135;28;19936;-54
2023/05/18 08:15:42;;;;;;;;;;;;;;;12.92;56.02;102924.81;5017174;28;20416;-50
2023/05/18 08:18:07;;;;;;;;;;;;;;;13.17;55.22;102927.88;5018926;28;19920;-55
2023/05/18 08:20:33;;;;;;;;;;;;;;;13.14;55.55;102930.28;5023085;28;19928;-55
2023/05/18 08:22:58;;;;;;;;;;;;;;;13.30;55.57;102932.88;5016717;28;19927;-55
2023/05/18 08:25:24;;;;;;;;;;;;;;;13.37;54.82;102926.31;5015629;28;20303;-55
2023/05/18 08:27:49;;;;;;;;;;;;;;;13.50;54.36;102920.03;5020249;28;20434;-54
2023/05/18 08:30:15;;;;;;;;;;;;;;;13.61;53.85;102921.44;5024171;28;19969;-51
2023/05/18 08:32:40;;;;;;;;;;;;;;;13.64;52.58;102921.56;5019353;28;19964;-53
2023/05/18 08:35:07;;;;;;;;;;;;;;;13.64;53.87;102921.56;5018638;28;19968;-56
2023/05/18 08:37:32;;;;;;;;;;;;;;;13.75;54.04;102916.94;5021278;28;19925;-55
2023/05/18 08:39:58;;;;;;;;;;;;;;;13.83;54.05;102913.00;5019203;28;19936;-55
2023/05/18 08:42:42;;;;;;;;;;;;;;;13.88;52.25;102917.56;5016342;28;19921;-54
2023/05/18 08:45:14;;;;;;;;;;;;;;;13.79;50.76;102909.41;5022494;28;19928;-52
2023/05/18 08:47:40;;;;;;;;;;;;;;;13.72;52.59;102909.03;5017763;28;19917;-55
2023/05/18 08:50:05;;;;;;;;;;;;;;;13.65;52.12;102906.16;5018501;28;21388;-56
2023/05/18 08:52:34;;;;;;;;;;;;;;;13.60;52.33;102902.47;5020022;28;19929;-55
2023/05/18 08:55:04;;;;;;;;;;;;;;;13.61;52.18;102903.34;5019331;28;20819;-55
2023/05/18 08:57:31;;;;;;;;;;;;;;;13.55;51.62;102901.34;5020800;28;19940;-54
2023/05/18 08:59:58;;;;;;;;;;;;;;;13.54;51.97;102904.75;5016982;28;19917;-53
2023/05/18 09:02:24;;;;;;;;;;;;;;;13.52;51.50;102895.13;5016079;28;20439;-52
2023/05/18 09:04:49;;;;;;;;;;;;;;;13.50;51.60;102894.19;5019918;28;20008;-54
2023/05/18 09:07:16;;;;;;;;;;;;;;;13.36;51.84;102899.56;5022274;28;19925;-49
2023/05/18 09:09:42;;;;;;;;;;;;;;;13.25;51.99;102903.31;5018005;28;19933;-53
2023/05/18 09:12:08;;;;;;;;;;;;;;;12.99;50.54;102904.56;5025111;28;19921;-54
2023/05/18 09:14:33;;;;;;;;;;;;;;;12.69;52.61;102896.16;5020937;28;20450;-52
2023/05/18 09:16:59;;;;;;;;;;;;;;;12.59;53.67;102899.94;5023092;28;20016;-52
2023/05/18 09:19:25;;;;;;;;;;;;;;;12.65;53.34;102894.22;5022943;28;19917;-51
2023/05/18 09:21:50;;;;;;;;;;;;;;;12.58;53.39;102897.28;5024651;28;20038;-52
2023/05/18 09:24:18;;;;;;;;;;;;;;;12.68;53.32;102884.06;5023280;28;19929;-53
2023/05/18 09:26:43;;;;;;;;;;;;;;;12.79;52.78;102888.06;5022608;28;20007;-49
2023/05/18 09:29:19;;;;;;;;;;;;;;;12.75;51.61;102886.16;5021398;28;20459;-53
2023/05/18 09:31:47;;;;;;;;;;;;;;;12.68;52.74;102883.16;5023811;28;19979;-55
2023/05/18 09:34:13;;;;;;;;;;;;;;;12.83;52.03;102889.09;5018832;28;20340;-52
2023/05/18 09:36:39;;;;;;;;;;;;;;;13.07;51.93;102894.63;5024467;28;20047;-53
2023/05/18 09:39:08;;;;;;;;;;;;;;;13.24;51.25;102878.31;5023726;28;20615;-53
2023/05/18 09:41:36;;;;;;;;;;;;;;;13.38;51.12;102877.28;5022473;28;19921;-54
2023/05/18 09:44:08;;;;;;;;;;;;;;;13.44;50.04;102871.50;5023974;28;19924;-56
2023/05/18 09:46:34;;;;;;;;;;;;;;;13.44;51.61;102874.09;5021720;28;20327;-56
2023/05/18 09:48:59;;;;;;;;;;;;;;;13.44;51.03;102871.50;5021464;28;20138;-55
2023/05/18 09:51:25;;;;;;;;;;;;;;;13.48;49.74;102877.72;5022002;28;20378;-56
2023/05/18 09:53:55;;;;;;;;;;;;;;;13.39;49.91;102872.97;5020621;28;20263;-55
2023/05/18 09:56:21;;;;;;;;;;;;;;;13.53;50.71;102868.47;5023114;28;19917;-52
2023/05/18 09:58:46;;;;;;;;;;;;;;;13.51;50.34;102872.69;5019380;28;20358;-54
2023/05/18 10:01:11;;;;;;;;;;;;;;;13.48;51.15;102865.69;5020308;28;20012;-53
2023/05/18 10:03:37;;;;;;;;;;;;;;;13.50;50.24;102864.06;5021422;28;19978;-52
2023/05/18 10:06:16;;;;;;;;;;;;;;;13.45;49.28;102857.78;5022155;28;20032;-51
2023/05/18 10:08:42;;;;;;;;;;;;;;;13.33;49.73;102870.09;5022530;28;19925;-55
2023/05/18 10:11:07;;;;;;;;;;;;;;;13.35;50.48;102864.22;5018920;28;19932;-51
2023/05/18 10:13:33;;;;;;;;;;;;;;;13.44;49.45;102870.63;5020004;28;20017;-57
2023/05/18 10:16:00;;;;;;;;;;;;;;;13.33;49.52;102860.66;5022467;28;20023;-54
2023/05/18 10:18:26;;;;;;;;;;;;;;;13.40;49.40;102856.66;5022365;28;19917;-54
2023/05/18 10:20:53;;;;;;;;;;;;;;;13.55;48.62;102854.81;5016659;28;20457;-52
2023/05/18 10:23:19;;;;;;;;;;;;;;;13.68;49.98;102858.88;5020882;28;19925;-53
2023/05/18 10:25:45;;;;;;;;;;;;;;;13.85;49.98;102838.97;5022316;28;19929;-55
2023/05/18 10:28:10;;;;;;;;;;;;;;;14.14;48.63;102854.13;5024192;28;19995;-54
2023/05/18 10:30:39;;;;;;;;;;;;;;;14.04;47.45;102851.94;5020196;28;20430;-53
2023/05/18 10:33:05;;;;;;;;;;;;;;;13.97;48.69;102851.59;5023650;28;19971;-52
2023/05/18 10:35:31;;;;;;;;;;;;;;;13.88;48.83;102854.63;5022301;28;20463;-53
2023/05/18 10:37:58;;;;;;;;;;;;;;;13.83;49.19;102845.75;5025150;28;20016;-54
2023/05/18 10:40:23;;;;;;;;;;;;;;;13.87;48.15;102856.31;5020034;28;19960;-55
2023/05/18 10:42:50;;;;;;;;;;;;;;;13.84;49.21;102853.63;5019206;28;20363;-50
2023/05/18 10:45:15;;;;;;;;;;;;;;;13.80;48.41;102849.09;5021065;28;20344;-48
2023/05/18 10:47:42;;;;;;;;;;;;;;;13.86;48.98;102843.34;5020455;28;19965;-49
2023/05/18 10:50:08;;;;;;;;;;;;;;;13.91;47.80;102847.91;5018676;28;19945;-50
2023/05/18 10:52:35;;;;;;;;;;;;;;;13.98;47.39;102841.31;5022416;28;19925;-50
2023/05/18 10:55:00;;;;;;;;;;;;;;;13.68;48.13;102835.59;5018523;28;19921;-50
2023/05/18 10:57:33;;;;;;;;;;;;;;;13.71;48.71;102840.94;5021507;28;19979;-53
2023/05/18 10:59:58;;;;;;;;;;;;;;;13.73;49.04;102833.25;5020174;28;19983;-48
2023/05/18 11:02:24;;;;;;;;;;;;;;;13.85;48.48;102839.88;5018441;28;19917;-47
2023/05/18 11:04:52;;;;;;;;;;;;;;;14.02;49.14;102832.88;5018010;28;20295;-50
2023/05/18 11:07:19;;;;;;;;;;;;;;;14.23;48.82;102826.06;5023514;28;19967;-50
2023/05/18 11:09:44;;;;;;;;;;;;;;;14.37;46.79;102830.94;5017538;28;19932;-50
2023/05/18 11:12:13;;;;;;;;;;;;;;;14.33;47.44;102822.19;5023294;28;19925;-48
2023/05/18 11:14:52;;;;;;;;;;;;;;;14.40;47.04;102826.81;5020603;28;19927;-47
2023/05/18 11:17:21;;;;;;;;;;;;;;;14.33;46.73;102824.78;5020257;28;19925;-49
2023/05/18 11:20:05;;;;;;;;;;;;;;;14.13;47.76;102823.00;5022392;28;19952;-51
2023/05/18 11:22:41;;;;;;;;;;;;;;;14.10;48.55;102813.41;5022219;28;19932;-48
2023/05/18 11:25:29;;;;;;;;;;;;;;;14.34;47.44;102815.31;5020612;28;19917;-46
2023/05/18 11:28:00;;;;;;;;;;;;;;;14.49;47.23;102816.00;5020003;28;19924;-49
2023/05/18 11:30:25;;;;;;;;;;;;;;;14.64;46.81;102816.66;5022355;28;19925;-49
2023/05/18 11:32:51;;;;;;;;;;;;;;;14.73;47.50;102818.75;5021900;28;20058;-47
2023/05/18 11:35:22;;;;;;;;;;;;;;;14.87;47.47;102816.75;5021350;28;19928;-50
2023/05/18 11:37:48;;;;;;;;;;;;;;;14.97;46.59;102816.28;5020003;28;19929;-46
2023/05/18 11:40:39;;;;;;;;;;;;;;;14.83;46.55;102810.53;5023145;28;19925;-46
2023/05/18 11:43:05;;;;;;;;;;;;;;;14.84;45.77;102809.72;5023769;28;19921;-45
2023/05/18 11:45:32;;;;;;;;;;;;;;;14.90;45.78;102799.59;5019744;28;19928;-46
2023/05/18 11:48:00;;;;;;;;;;;;;;;15.08;46.48;102809.84;5021631;28;19927;-47
2023/05/18 11:50:25;;;;;;;;;;;;;;;15.16;45.97;102802.38;5021610;28;20386;-47
2023/05/18 11:52:52;;;;;;;;;;;;;;;14.95;46.09;102802.41;5019971;28;21347;-46
2023/05/18 11:55:19;;;;;;;;;;;;;;;14.99;45.87;102799.13;5019109;28;19925;-48
2023/05/18 11:57:46;;;;;;;;;;;;;;;14.90;46.36;102788.38;5021395;28;19917;-45
2023/05/18 12:00:12;;;;;;;;;;;;;;;14.94;45.25;102779.91;5014629;28;19925;-45
2023/05/18 12:02:41;;;;;;;;;;;;;;;14.97;46.05;102791.25;5017072;28;19924;-48
2023/05/18 12:05:07;;;;;;;;;;;;;;;14.78;47.05;102786.16;5014445;28;19972;-48
2023/05/18 12:07:34;;;;;;;;;;;;;;;14.62;46.59;102788.91;5017990;28;20269;-49
2023/05/18 12:10:00;;;;;;;;;;;;;;;14.65;48.18;102783.88;5018616;28;20260;-48
2023/05/18 12:12:26;;;;;;;;;;;;;;;14.64;47.51;102785.59;5021815;28;19922;-45
2023/05/18 12:14:55;;;;;;;;;;;;;;;14.58;47.11;102781.88;5012199;28;19925;-49
2023/05/18 12:17:22;;;;;;;;;;;;;;;14.49;47.57;102774.56;5015920;28;19956;-46
2023/05/18 12:19:47;;;;;;;;;;;;;;;14.40;47.68;102785.41;5015675;28;19958;-46
2023/05/18 12:22:13;;;;;;;;;;;;;;;14.46;48.14;102783.09;5023329;28;20371;-48
2023/05/18 12:24:39;;;;;;;;;;;;;;;14.42;47.93;102781.16;5017767;28;19926;-49
2023/05/18 12:27:05;;;;;;;;;;;;;;;14.27;48.53;102784.81;5016215;28;20310;-48
2023/05/18 12:29:30;;;;;;;;;;;;;;;14.21;48.68;102785.44;5018167;28;20305;-47
2023/05/18 12:31:56;;;;;;;;;;;;;;;14.18;48.96;102782.69;5020603;28;19928;-47
2023/05/18 12:34:21;;;;;;;;;;;;;;;14.17;48.09;102783.50;5022121;28;19976;-47
2023/05/18 12:36:53;;;;;;;;;;;;;;;14.18;48.68;102782.69;5011538;28;20408;-44